createdAt,value
2019-05-23T00:00:00.958Z,10.83
2019-05-23T00:02:48.115Z,11.30
2019-05-23T00:05:35.949Z,12.57
2019-05-23T00:08:16.935Z,13.67
2019-05-23T00:10:53.256Z,14.20
2019-05-23T00:13:35.441Z,11.77
2019-05-23T00:16:06.430Z,10.63
2019-05-23T00:18:37.082Z,9.63
2019-05-23T00:21:07.760Z,13.20
2019-05-23T00:23:38.753Z,11.20
2019-05-23T00:26:07.974Z,12.50
2019-05-23T00:28:37.187Z,10.97
2019-05-23T00:31:13.520Z,13.27
2019-05-23T00:33:43.921Z,11.63
2019-05-23T00:36:14.138Z,11.20
2019-05-23T00:38:44.072Z,10.60
2019-05-23T00:41:13.534Z,12.77
2019-05-23T00:43:43.175Z,12.97
2019-05-23T00:46:12.809Z,12.53
2019-05-23T00:48:42.734Z,12.37
2019-05-23T00:51:12.287Z,13.37
2019-05-23T00:53:42.251Z,15.50
2019-05-23T00:56:11.576Z,12.93
2019-05-23T00:58:40.889Z,14.07
2019-05-23T01:01:11.522Z,12.33
2019-05-23T01:03:41.217Z,11.23
2019-05-23T01:06:10.975Z,13.03
2019-05-23T01:08:40.173Z,14.10
2019-05-23T01:11:10.557Z,11.87
2019-05-23T01:13:39.774Z,13.60
2019-05-23T01:16:09.061Z,12.57
2019-05-23T01:18:38.434Z,11.50
2019-05-23T01:21:29.716Z,13.10
2019-05-23T01:24:07.928Z,10.50
2019-05-23T01:26:37.909Z,9.87
2019-05-23T01:29:07.625Z,13.43
2019-05-23T01:31:39.502Z,11.53
2019-05-23T01:34:11.607Z,12.17
2019-05-23T01:36:40.790Z,12.43
2019-05-23T01:39:11.555Z,11.63
2019-05-23T01:41:41.308Z,12.67
2019-05-23T01:44:11.415Z,10.60
2019-05-23T01:46:40.966Z,12.73
2019-05-23T01:49:11.782Z,12.43
2019-05-23T01:51:41.166Z,14.87
2019-05-23T01:54:11.861Z,11.60
2019-05-23T01:56:41.102Z,11.13
2019-05-23T01:59:10.494Z,12.07
2019-05-23T02:01:40.533Z,13.50
2019-05-23T02:04:09.761Z,10.00
2019-05-23T02:06:39.218Z,13.70
2019-05-23T02:09:09.306Z,11.90
2019-05-23T02:11:38.520Z,13.03
2019-05-23T02:14:07.831Z,13.63
2019-05-23T02:16:37.924Z,12.53
2019-05-23T02:19:08.172Z,10.97
2019-05-23T02:21:37.534Z,10.70
2019-05-23T02:24:07.182Z,11.70
2019-05-23T02:26:36.697Z,11.13
2019-05-23T02:29:06.662Z,12.77
2019-05-23T02:31:36.271Z,11.60
2019-05-23T02:34:06.069Z,10.63
2019-05-23T02:36:35.415Z,13.00
2019-05-23T02:39:23.552Z,13.90
2019-05-23T02:41:58.789Z,12.57
2019-05-23T02:44:29.367Z,12.87
2019-05-23T02:47:04.786Z,12.57
2019-05-23T02:49:35.004Z,13.87
2019-05-23T02:52:21.841Z,12.53
2019-05-23T02:54:52.259Z,12.80
2019-05-23T02:57:23.436Z,11.57
2019-05-23T02:59:55.883Z,11.90
2019-05-23T03:02:39.589Z,15.57
2019-05-23T03:05:11.922Z,11.33
2019-05-23T03:07:42.141Z,13.03
2019-05-23T03:10:12.550Z,12.17
2019-05-23T03:12:43.466Z,11.80
2019-05-23T03:15:14.494Z,12.20
2019-05-23T03:17:47.258Z,14.07
2019-05-23T03:20:16.493Z,11.77
2019-05-23T03:22:53.442Z,12.90
2019-05-23T03:26:18.734Z,14.27
2019-05-23T03:28:48.530Z,13.17
2019-05-23T03:31:30.602Z,13.60
2019-05-23T03:33:56.253Z,11.57
2019-05-23T03:36:26.010Z,12.07
2019-05-23T03:38:55.373Z,12.33
2019-05-23T03:41:25.178Z,13.27
2019-05-23T03:43:55.076Z,12.43
2019-05-23T03:46:27.076Z,12.97
2019-05-23T03:48:57.865Z,13.83
2019-05-23T03:51:28.552Z,12.80
2019-05-23T03:53:58.290Z,15.17
2019-05-23T03:56:27.590Z,12.87
2019-05-23T03:58:58.488Z,14.13
2019-05-23T04:01:45.900Z,13.40
2019-05-23T04:04:03.127Z,14.67
2019-05-23T04:06:32.875Z,14.93
2019-05-23T04:09:03.859Z,12.73
2019-05-23T04:11:33.066Z,15.33
2019-05-23T04:14:03.979Z,13.87
2019-05-23T04:16:33.409Z,13.43
2019-05-23T04:19:02.638Z,14.23
2019-05-23T04:21:31.866Z,13.57
2019-05-23T04:24:01.172Z,17.57
2019-05-23T04:26:30.696Z,13.57
2019-05-23T04:28:59.953Z,14.20
2019-05-23T04:31:29.375Z,14.47
2019-05-23T04:33:59.051Z,16.80
2019-05-23T04:36:28.304Z,16.10
2019-05-23T04:38:57.549Z,14.23
2019-05-23T04:41:26.830Z,12.77
2019-05-23T04:43:56.050Z,17.10
2019-05-23T04:46:25.513Z,13.87
2019-05-23T04:48:54.704Z,14.73
2019-05-23T04:51:24.632Z,14.60
2019-05-23T04:53:54.659Z,14.17
2019-05-23T04:56:23.751Z,14.77
2019-05-23T04:58:52.943Z,14.67
2019-05-23T05:01:22.521Z,15.73
2019-05-23T05:03:51.990Z,17.57
2019-05-23T05:06:21.507Z,15.80
2019-05-23T05:08:52.363Z,15.87
2019-05-23T05:11:22.060Z,17.07
2019-05-23T05:13:51.436Z,14.70
2019-05-23T05:16:20.651Z,15.13
2019-05-23T05:18:49.891Z,17.50
2019-05-23T05:21:19.120Z,15.77
2019-05-23T05:23:48.357Z,18.27
2019-05-23T05:26:22.317Z,19.37
2019-05-23T05:28:52.449Z,19.53
2019-05-23T05:31:21.674Z,15.70
2019-05-23T05:33:52.691Z,17.33
2019-05-23T05:36:22.175Z,16.83
2019-05-23T05:38:52.982Z,16.80
2019-05-23T05:41:22.385Z,16.73
2019-05-23T05:43:51.629Z,18.20
2019-05-23T05:46:21.417Z,18.17
2019-05-23T05:48:50.689Z,17.47
2019-05-23T05:51:19.948Z,17.37
2019-05-23T05:53:49.426Z,18.23
2019-05-23T05:56:18.697Z,16.20
2019-05-23T05:58:47.977Z,20.67
2019-05-23T06:01:32.794Z,18.57
2019-05-23T06:03:48.593Z,18.67
2019-05-23T06:06:34.978Z,16.13
2019-05-23T06:09:12.112Z,16.67
2019-05-23T06:11:41.334Z,17.00
2019-05-23T06:14:10.551Z,15.50
2019-05-23T06:16:40.436Z,17.20
2019-05-23T06:19:10.300Z,15.20
2019-05-23T06:21:41.122Z,16.57
2019-05-23T06:24:11.981Z,16.37
2019-05-23T06:26:41.825Z,16.87
2019-05-23T06:29:11.403Z,16.53
2019-05-23T06:31:41.585Z,17.90
2019-05-23T06:34:11.304Z,18.23
2019-05-23T06:36:40.537Z,17.37
2019-05-23T06:39:10.732Z,18.73
2019-05-23T06:41:40.083Z,17.33
2019-05-23T06:44:09.757Z,15.33
2019-05-23T06:46:39.186Z,14.47
2019-05-23T06:49:08.362Z,16.17
2019-05-23T06:51:37.593Z,16.67
2019-05-23T06:54:08.439Z,18.67
2019-05-23T06:56:37.835Z,15.30
2019-05-23T06:59:07.189Z,15.73
2019-05-23T07:01:36.402Z,16.23
2019-05-23T07:04:06.893Z,18.17
2019-05-23T07:06:36.071Z,17.97
2019-05-23T07:09:10.418Z,16.87
2019-05-23T07:11:39.715Z,16.97
2019-05-23T07:14:09.246Z,20.10
2019-05-23T07:16:38.458Z,15.33
2019-05-23T07:19:07.759Z,22.47
2019-05-23T07:21:37.375Z,19.03
2019-05-23T07:24:06.630Z,17.20
2019-05-23T07:26:35.882Z,15.00
2019-05-23T07:29:05.399Z,15.30
2019-05-23T07:31:35.615Z,15.47
2019-05-23T07:34:05.179Z,16.03
2019-05-23T07:36:35.617Z,18.13
2019-05-23T07:39:06.502Z,14.73
2019-05-23T07:41:35.890Z,15.93
2019-05-23T07:44:06.886Z,13.73
2019-05-23T07:46:36.341Z,15.80
2019-05-23T07:49:07.204Z,13.80
2019-05-23T07:51:36.463Z,14.83
2019-05-23T07:54:20.606Z,15.60
2019-05-23T07:56:50.682Z,17.87
2019-05-23T07:59:19.868Z,14.50
2019-05-23T08:01:53.290Z,17.67
2019-05-23T08:04:22.957Z,14.57
2019-05-23T08:06:53.043Z,15.53
2019-05-23T08:09:22.357Z,12.50
2019-05-23T08:11:51.679Z,15.53
2019-05-23T08:14:20.884Z,16.17
2019-05-23T08:16:50.994Z,15.27
2019-05-23T08:19:20.289Z,14.43
2019-05-23T08:21:49.532Z,12.73
2019-05-23T08:24:19.257Z,14.03
2019-05-23T08:26:49.788Z,13.73
2019-05-23T08:29:26.948Z,14.83
2019-05-23T08:31:50.434Z,16.93
2019-05-23T08:34:37.863Z,14.10
2019-05-23T08:36:51.282Z,11.50
2019-05-23T08:39:22.093Z,12.63
2019-05-23T08:41:51.503Z,15.67
2019-05-23T08:44:21.097Z,11.73
2019-05-23T08:46:50.749Z,12.47
2019-05-23T08:49:20.828Z,15.00
2019-05-23T08:51:50.106Z,10.93
2019-05-23T08:54:19.334Z,13.00
2019-05-23T08:56:48.528Z,11.60
2019-05-23T08:59:17.897Z,11.30
2019-05-23T09:01:47.331Z,13.13
2019-05-23T09:04:16.529Z,11.17
2019-05-23T09:06:45.914Z,11.30
2019-05-23T09:09:29.075Z,12.50
2019-05-23T09:11:46.449Z,12.47
2019-05-23T09:14:15.640Z,13.23
2019-05-23T09:16:45.040Z,11.73
2019-05-23T09:19:14.235Z,11.73
2019-05-23T09:21:43.463Z,9.73
2019-05-23T09:24:12.799Z,10.00
2019-05-23T09:26:42.013Z,10.37
2019-05-23T09:29:11.194Z,10.33
2019-05-23T09:31:40.440Z,10.37
2019-05-23T09:34:09.693Z,8.40
2019-05-23T09:36:38.897Z,11.03
2019-05-23T09:39:09.764Z,10.37
2019-05-23T09:41:38.949Z,9.87
2019-05-23T09:44:08.454Z,11.40
2019-05-23T09:46:37.719Z,10.30
2019-05-23T09:49:10.928Z,10.43
2019-05-23T09:51:37.883Z,16.17
2019-05-23T09:54:07.080Z,9.63
2019-05-23T09:56:36.595Z,9.77
2019-05-23T09:59:05.857Z,10.07
2019-05-23T10:01:35.168Z,9.23
2019-05-23T10:04:04.437Z,7.67
2019-05-23T10:06:33.688Z,8.00
2019-05-23T10:09:02.980Z,7.40
2019-05-23T10:11:32.177Z,7.43
2019-05-23T10:14:02.042Z,7.03
2019-05-23T10:16:31.393Z,7.70
2019-05-23T10:19:00.683Z,6.50
2019-05-23T10:21:30.090Z,5.17
2019-05-23T10:23:59.309Z,5.33
2019-05-23T10:26:28.834Z,9.23
2019-05-23T10:28:58.092Z,6.00
2019-05-23T10:31:27.564Z,5.87
2019-05-23T10:33:56.800Z,7.00
2019-05-23T10:36:26.002Z,5.47
2019-05-23T10:38:55.268Z,4.37
2019-05-23T10:41:24.506Z,5.80
2019-05-23T10:43:53.697Z,7.40
2019-05-23T10:46:22.873Z,4.47
2019-05-23T10:48:52.361Z,4.83
2019-05-23T10:51:21.546Z,4.83
2019-05-23T10:53:50.811Z,6.70
2019-05-23T10:56:20.990Z,6.33
2019-05-23T10:58:50.449Z,5.23
2019-05-23T11:01:19.839Z,6.07
2019-05-23T11:03:49.111Z,6.43
2019-05-23T11:06:18.315Z,5.77
2019-05-23T11:08:47.531Z,6.03
2019-05-23T11:11:16.973Z,4.73
2019-05-23T11:13:46.748Z,4.30
2019-05-23T11:16:15.928Z,5.37
2019-05-23T11:18:45.141Z,4.13
2019-05-23T11:21:14.686Z,3.73
2019-05-23T11:23:49.046Z,6.23
2019-05-23T11:26:18.356Z,4.53
2019-05-23T11:28:47.641Z,5.20
2019-05-23T11:31:17.850Z,7.40
2019-05-23T11:33:47.126Z,5.43
2019-05-23T11:36:31.863Z,5.97
2019-05-23T11:38:47.253Z,4.50
2019-05-23T11:41:16.587Z,7.03
2019-05-23T11:43:46.367Z,5.93
2019-05-23T11:46:27.258Z,4.13
2019-05-23T11:48:56.626Z,5.17
2019-05-23T11:51:26.469Z,3.17
2019-05-23T11:54:07.746Z,3.87
2019-05-23T11:56:27.584Z,6.17
2019-05-23T11:59:00.943Z,4.47
2019-05-23T12:01:46.733Z,4.67
2019-05-23T12:04:18.535Z,4.83
2019-05-23T12:07:02.744Z,7.03
2019-05-23T12:09:32.433Z,7.03
2019-05-23T12:12:01.640Z,5.07
2019-05-23T12:14:30.813Z,4.73
2019-05-23T12:17:00.082Z,7.47
2019-05-23T12:19:29.657Z,5.87
2019-05-23T12:21:58.875Z,5.10
2019-05-23T12:24:28.188Z,4.20
2019-05-23T12:26:57.445Z,5.53
2019-05-23T12:29:26.816Z,5.17
2019-05-23T12:31:56.742Z,4.20
2019-05-23T12:34:26.020Z,5.13
2019-05-23T12:37:16.816Z,8.47
2019-05-23T12:39:27.662Z,6.20
2019-05-23T12:41:56.913Z,7.83
2019-05-23T12:44:26.311Z,8.53
2019-05-23T12:46:55.584Z,6.40
2019-05-23T12:49:31.482Z,7.83
2019-05-23T12:52:00.869Z,6.20
2019-05-23T12:54:30.542Z,6.67
2019-05-23T12:56:59.759Z,7.20
2019-05-23T12:59:29.041Z,8.27
2019-05-23T13:01:59.544Z,6.90
2019-05-23T13:04:28.946Z,8.97
2019-05-23T13:06:58.350Z,8.30
2019-05-23T13:09:28.237Z,8.53
2019-05-23T13:11:57.430Z,11.10
2019-05-23T13:14:27.120Z,8.37
2019-05-23T13:17:00.483Z,6.93
2019-05-23T13:19:28.015Z,9.13
2019-05-23T13:21:57.271Z,10.20
2019-05-23T13:24:26.524Z,6.80
2019-05-23T13:26:55.802Z,9.40
2019-05-23T13:29:25.759Z,6.53
2019-05-23T13:31:54.989Z,10.33
2019-05-23T13:34:24.251Z,8.17
2019-05-23T13:36:53.589Z,12.47
2019-05-23T13:39:22.926Z,9.07
2019-05-23T13:41:52.234Z,6.50
2019-05-23T13:44:33.569Z,9.37
2019-05-23T13:46:53.376Z,7.30
2019-05-23T13:49:23.023Z,11.00
2019-05-23T13:51:52.238Z,7.27
2019-05-23T13:54:21.917Z,8.73
2019-05-23T13:56:51.866Z,8.50
2019-05-23T13:59:21.070Z,9.60
2019-05-23T14:01:50.301Z,8.30
2019-05-23T14:04:19.706Z,10.23
2019-05-23T14:06:49.104Z,8.43
2019-05-23T14:09:20.019Z,9.53
2019-05-23T14:11:49.217Z,9.90
2019-05-23T14:14:18.410Z,9.93
2019-05-23T14:16:59.763Z,8.40
2019-05-23T14:19:29.720Z,10.63
2019-05-23T14:21:59.113Z,8.17
2019-05-23T14:24:28.333Z,9.77
2019-05-23T14:27:04.781Z,10.47
2019-05-23T14:29:34.219Z,11.60
2019-05-23T14:32:21.250Z,10.10
2019-05-23T14:34:50.742Z,9.90
2019-05-23T14:37:28.853Z,8.47
2019-05-23T14:40:02.037Z,8.97
2019-05-23T14:42:52.741Z,8.70
2019-05-23T14:45:37.699Z,7.73
2019-05-23T14:48:13.332Z,9.43
2019-05-23T14:50:59.649Z,9.27
2019-05-23T14:53:31.462Z,9.50
2019-05-23T14:56:00.809Z,11.43
2019-05-23T14:58:30.162Z,9.17
2019-05-23T15:00:59.993Z,8.67
2019-05-23T15:03:29.964Z,8.40
2019-05-23T15:05:59.264Z,11.93
2019-05-23T15:08:28.692Z,11.53
2019-05-23T15:10:57.983Z,11.20
2019-05-23T15:13:27.238Z,11.63
2019-05-23T15:15:56.445Z,8.93
2019-05-23T15:18:25.798Z,9.30
2019-05-23T15:20:55.015Z,8.97
2019-05-23T15:23:24.265Z,10.53
2019-05-23T15:25:53.490Z,9.50
2019-05-23T15:28:22.676Z,9.23
2019-05-23T15:30:51.885Z,9.10
2019-05-23T15:33:21.170Z,9.73
2019-05-23T15:35:50.372Z,9.67
2019-05-23T15:38:19.613Z,9.17
2019-05-23T15:40:48.808Z,9.23
2019-05-23T15:43:18.092Z,7.70
2019-05-23T15:45:47.340Z,7.83
2019-05-23T15:48:16.807Z,8.30
2019-05-23T15:50:50.046Z,9.13
2019-05-23T15:53:45.421Z,10.63
2019-05-23T15:56:27.296Z,8.20
2019-05-23T15:59:00.561Z,8.97
2019-05-23T16:01:35.376Z,8.90
2019-05-23T16:04:08.919Z,8.10
2019-05-23T16:06:38.773Z,7.67
2019-05-23T16:09:27.842Z,6.93
2019-05-23T16:11:43.090Z,7.80
2019-05-23T16:14:13.403Z,7.90
2019-05-23T16:16:42.614Z,7.47
2019-05-23T16:19:12.189Z,6.53
2019-05-23T16:21:42.156Z,5.23
2019-05-23T16:24:12.822Z,7.17
2019-05-23T16:26:42.205Z,6.60
2019-05-23T16:29:12.702Z,5.57
2019-05-23T16:31:42.436Z,5.47
2019-05-23T16:34:11.810Z,6.77
2019-05-23T16:36:41.033Z,6.77
2019-05-23T16:39:11.109Z,5.77
2019-05-23T16:41:40.467Z,7.03
2019-05-23T16:44:09.657Z,8.03
2019-05-23T16:46:38.919Z,8.10
2019-05-23T16:49:08.485Z,9.17
2019-05-23T16:51:37.749Z,6.27
2019-05-23T16:54:07.085Z,6.30
2019-05-23T16:56:43.043Z,7.73
2019-05-23T16:59:26.640Z,7.77
2019-05-23T17:02:14.925Z,8.83
2019-05-23T17:05:09.252Z,9.50
2019-05-23T17:07:50.088Z,6.17
2019-05-23T17:10:24.221Z,8.10
2019-05-23T17:13:04.205Z,7.13
2019-05-23T17:15:52.595Z,5.77
2019-05-23T17:18:43.682Z,7.80
2019-05-23T17:21:25.180Z,6.23
2019-05-23T17:24:03.317Z,5.13
2019-05-23T17:26:51.056Z,5.30
2019-05-23T17:29:28.047Z,4.97
2019-05-23T17:31:57.916Z,7.00
2019-05-23T17:34:27.118Z,6.97
2019-05-23T17:36:56.734Z,5.67
2019-05-23T17:39:27.616Z,4.40
2019-05-23T17:41:57.043Z,5.77
2019-05-23T17:44:26.363Z,4.83
2019-05-23T17:46:55.845Z,6.03
2019-05-23T17:49:26.714Z,5.87
2019-05-23T17:51:55.972Z,4.37
2019-05-23T17:54:25.402Z,5.37
2019-05-23T17:56:54.696Z,5.43
2019-05-23T17:59:24.017Z,4.67
2019-05-23T18:01:53.382Z,4.50
2019-05-23T18:04:22.882Z,5.07
2019-05-23T18:06:52.087Z,3.53
2019-05-23T18:09:21.314Z,4.27
2019-05-23T18:11:50.887Z,5.70
2019-05-23T18:14:20.362Z,6.20
2019-05-23T18:16:50.004Z,4.87
2019-05-23T18:19:19.700Z,7.20
2019-05-23T18:21:49.000Z,4.87
2019-05-23T18:24:18.262Z,4.50
2019-05-23T18:26:49.759Z,3.70
2019-05-23T18:29:19.225Z,4.00
2019-05-23T18:31:50.085Z,7.47
2019-05-23T18:34:19.874Z,4.90
2019-05-23T18:36:49.096Z,4.87
2019-05-23T18:39:19.192Z,4.40
2019-05-23T18:41:48.595Z,3.83
2019-05-23T18:44:18.675Z,4.93
2019-05-23T18:46:51.802Z,6.33
2019-05-23T18:49:20.993Z,4.60
2019-05-23T18:51:50.649Z,7.27
2019-05-23T18:54:19.858Z,4.90
2019-05-23T18:56:49.115Z,5.10
2019-05-23T18:59:19.346Z,3.13
2019-05-23T19:01:48.632Z,3.83
2019-05-23T19:04:17.841Z,6.73
2019-05-23T19:06:47.812Z,5.97
2019-05-23T19:09:17.371Z,5.40
2019-05-23T19:11:46.870Z,6.40
2019-05-23T19:14:16.184Z,5.27
2019-05-23T19:16:45.735Z,6.90
2019-05-23T19:19:15.097Z,4.93
2019-05-23T19:21:44.505Z,4.90
2019-05-23T19:24:13.888Z,4.80
2019-05-23T19:26:43.193Z,4.50
2019-05-23T19:29:12.851Z,5.13
2019-05-23T19:31:42.574Z,3.17
2019-05-23T19:34:11.905Z,3.97
2019-05-23T19:36:41.439Z,6.23
2019-05-23T19:39:11.655Z,6.27
2019-05-23T19:41:41.329Z,5.43
2019-05-23T19:44:10.639Z,8.40
2019-05-23T19:46:39.863Z,6.13
2019-05-23T19:49:09.607Z,4.90
2019-05-23T19:51:39.299Z,6.60
2019-05-23T19:54:09.646Z,6.40
2019-05-23T19:56:38.979Z,7.30
2019-05-23T19:59:08.225Z,7.37
2019-05-23T20:01:50.382Z,7.13
2019-05-23T20:04:20.763Z,7.33
2019-05-23T20:06:50.160Z,8.80
2019-05-23T20:09:20.463Z,8.47
2019-05-23T20:11:54.262Z,9.53
2019-05-23T20:14:20.930Z,7.77
2019-05-23T20:16:50.160Z,10.20
2019-05-23T20:19:19.392Z,9.53
2019-05-23T20:21:48.691Z,10.97
2019-05-23T20:24:18.231Z,10.73
2019-05-23T20:26:47.696Z,10.77
2019-05-23T20:29:19.456Z,11.03
2019-05-23T20:31:57.303Z,9.67
2019-05-23T20:34:27.012Z,9.50
2019-05-23T20:36:56.336Z,9.23
2019-05-23T20:39:28.870Z,8.00
2019-05-23T20:42:10.761Z,8.43
2019-05-23T20:44:29.753Z,8.17
2019-05-23T20:46:59.095Z,6.77
2019-05-23T20:49:28.385Z,7.73
2019-05-23T20:51:59.293Z,10.43
2019-05-23T20:54:32.801Z,7.50
2019-05-23T20:57:00.308Z,7.90
2019-05-23T20:59:29.626Z,7.70
2019-05-23T21:01:59.022Z,9.87
2019-05-23T21:04:28.271Z,8.37
2019-05-23T21:06:57.511Z,6.13
2019-05-23T21:09:26.745Z,6.23
2019-05-23T21:11:56.097Z,7.70
2019-05-23T21:14:25.470Z,6.77
2019-05-23T21:16:54.796Z,8.67
2019-05-23T21:19:24.124Z,7.60
2019-05-23T21:21:53.393Z,6.07
2019-05-23T21:24:22.832Z,7.60
2019-05-23T21:26:53.978Z,6.30
2019-05-23T21:29:23.422Z,6.33
2019-05-23T21:31:52.978Z,7.27
2019-05-23T21:34:23.954Z,7.90
2019-05-23T21:36:53.617Z,8.80
2019-05-23T21:39:22.922Z,6.43
2019-05-23T21:41:52.305Z,8.37
2019-05-23T21:44:21.632Z,8.93
2019-05-23T21:46:51.183Z,6.10
2019-05-23T21:49:20.680Z,6.87
2019-05-23T21:51:51.993Z,8.63
2019-05-23T21:54:21.067Z,7.67
2019-05-23T21:56:50.673Z,5.10
2019-05-23T21:59:20.075Z,6.17
2019-05-23T22:02:13.585Z,6.60
2019-05-23T22:04:50.297Z,6.23
2019-05-23T22:07:19.722Z,9.27
2019-05-23T22:09:49.015Z,7.13
2019-05-23T22:12:18.374Z,8.03
2019-05-23T22:14:47.843Z,6.50
2019-05-23T22:17:19.512Z,10.17
2019-05-23T22:19:48.947Z,9.77
2019-05-23T22:22:18.589Z,12.10
2019-05-23T22:24:47.888Z,8.83
2019-05-23T22:27:17.491Z,7.43
2019-05-23T22:29:46.722Z,9.07
2019-05-23T22:32:17.808Z,9.23
2019-05-23T22:34:58.306Z,9.10
2019-05-23T22:37:29.311Z,10.13
2019-05-23T22:39:58.578Z,9.07
2019-05-23T22:42:29.498Z,8.60
2019-05-23T22:44:58.919Z,11.53
2019-05-23T22:47:28.360Z,8.40
2019-05-23T22:49:57.632Z,10.37
2019-05-23T22:52:26.873Z,9.13
2019-05-23T22:54:56.262Z,10.23
2019-05-23T22:57:25.634Z,9.50
2019-05-23T22:59:54.995Z,9.40
2019-05-23T23:02:24.510Z,10.47
2019-05-23T23:04:54.148Z,10.10
2019-05-23T23:07:23.428Z,10.70
2019-05-23T23:09:52.688Z,9.00
2019-05-23T23:12:22.391Z,11.60
2019-05-23T23:14:51.893Z,8.97
2019-05-23T23:17:21.470Z,11.67
2019-05-23T23:19:50.811Z,9.27
2019-05-23T23:22:20.115Z,9.90
2019-05-23T23:24:53.172Z,8.93
2019-05-23T23:27:22.702Z,11.43
2019-05-23T23:29:52.115Z,9.20
2019-05-23T23:32:21.654Z,9.70
2019-05-23T23:34:51.022Z,11.07
2019-05-23T23:37:20.453Z,10.20
2019-05-23T23:39:50.050Z,9.83
2019-05-23T23:42:19.917Z,10.10
2019-05-23T23:44:48.602Z,10.53
2019-05-23T23:47:35.478Z,8.77
2019-05-23T23:50:22.747Z,9.23
2019-05-23T23:53:09.690Z,10.93
2019-05-23T23:55:56.512Z,10.07
2019-05-23T23:58:25.046Z,10.50
